Time;durP1;ratioP1;P1;durP2;ratioP2;P2;SDS_P1;SDS_P2;PMS_P1;PMS_P2;Temp;Humidity;BMP_temperature;BMP_pressure;BME280_temperature;BME280_humidity;BME280_pressure;Samples;Min_cycle;Max_cycle;Signal;HPM_P1;HPM_P2
2021/01/27 00:00:48;;;;;;;5.80;3.63;;;2.10;99.90;;;;;;5037812;28;20418;-67
2021/01/27 00:03:15;;;;;;;7.70;4.03;;;2.00;99.90;;;;;;5032970;28;20422;-65
2021/01/27 00:05:51;;;;;;;6.87;4.40;;;2.10;99.90;;;;;;5033143;28;20951;-66
2021/01/27 00:08:17;;;;;;;8.00;4.63;;;2.10;99.90;;;;;;5032858;28;20997;-67
2021/01/27 00:10:43;;;;;;;7.37;4.33;;;2.10;99.90;;;;;;5032577;28;20414;-65
2021/01/27 00:13:12;;;;;;;10.50;4.30;;;2.10;99.90;;;;;;5032689;28;20417;-63
2021/01/27 00:15:40;;;;;;;8.60;4.30;;;2.10;99.90;;;;;;5045788;28;20163;-65
2021/01/27 00:18:09;;;;;;;8.73;4.20;;;2.10;99.90;;;;;;5045945;28;20415;-65
2021/01/27 00:20:35;;;;;;;5.07;2.73;;;2.10;99.90;;;;;;5033089;28;20422;-66
2021/01/27 00:23:01;;;;;;;7.43;3.73;;;2.10;99.90;;;;;;5051046;28;20499;-64
2021/01/27 00:25:30;;;;;;;6.67;4.67;;;2.10;99.90;;;;;;5052214;28;20774;-65
2021/01/27 00:27:57;;;;;;;8.47;4.33;;;2.10;99.90;;;;;;5036398;28;20943;-64
2021/01/27 00:30:26;;;;;;;10.30;4.33;;;2.20;99.90;;;;;;5048995;28;20774;-66
2021/01/27 00:32:53;;;;;;;8.47;4.00;;;2.10;99.90;;;;;;5052378;28;20508;-66
2021/01/27 00:35:21;;;;;;;6.07;4.50;;;2.20;99.90;;;;;;5052349;28;20544;-65
2021/01/27 00:37:47;;;;;;;7.13;3.50;;;2.20;99.90;;;;;;5033107;28;20410;-64
2021/01/27 00:40:13;;;;;;;5.60;4.20;;;2.20;99.90;;;;;;5031020;28;20429;-64
2021/01/27 00:42:39;;;;;;;7.33;4.40;;;2.20;99.90;;;;;;5032347;28;20183;-67
2021/01/27 00:45:06;;;;;;;5.73;4.07;;;2.20;99.90;;;;;;5032246;28;20778;-65
2021/01/27 00:47:32;;;;;;;9.60;4.40;;;2.20;99.90;;;;;;5045772;28;20516;-66
2021/01/27 00:49:57;;;;;;;7.03;3.93;;;2.20;99.90;;;;;;5051855;28;20406;-64
2021/01/27 00:52:23;;;;;;;8.70;3.90;;;2.20;99.90;;;;;;5038067;28;20215;-66
2021/01/27 00:54:48;;;;;;;8.07;4.30;;;2.20;99.90;;;;;;5031888;28;20179;-64
2021/01/27 00:57:14;;;;;;;5.90;3.77;;;2.20;99.90;;;;;;5032132;28;20179;-65
2021/01/27 00:59:40;;;;;;;5.77;3.60;;;2.20;99.90;;;;;;5031868;28;20187;-65
2021/01/27 01:02:05;;;;;;;5.00;3.03;;;2.20;99.90;;;;;;5032037;28;20179;-66
2021/01/27 01:04:31;;;;;;;4.47;3.40;;;2.10;99.90;;;;;;5031908;28;20202;-64
2021/01/27 01:06:56;;;;;;;5.50;3.20;;;2.10;99.90;;;;;;5031939;28;20179;-64
2021/01/27 01:09:22;;;;;;;7.13;3.73;;;2.10;99.90;;;;;;5030791;28;20207;-64
2021/01/27 01:11:48;;;;;;;6.90;3.50;;;2.10;99.90;;;;;;5031756;28;20186;-67
2021/01/27 01:14:13;;;;;;;7.13;3.53;;;2.10;99.90;;;;;;5031574;28;20186;-63
2021/01/27 01:16:39;;;;;;;5.87;3.23;;;2.10;99.90;;;;;;5031788;28;20211;-64
2021/01/27 01:19:07;;;;;;;6.07;3.70;;;2.00;99.90;;;;;;5031820;28;20201;-65
2021/01/27 01:21:33;;;;;;;4.40;3.30;;;2.00;99.90;;;;;;5031280;28;20547;-64
2021/01/27 01:23:58;;;;;;;5.33;3.40;;;2.00;99.90;;;;;;5031591;28;20434;-66
2021/01/27 01:26:24;;;;;;;5.20;3.27;;;2.00;99.90;;;;;;5031450;28;20674;-65
2021/01/27 01:28:50;;;;;;;7.83;3.40;;;1.90;99.90;;;;;;5031476;28;20238;-65
2021/01/27 01:31:15;;;;;;;4.33;3.23;;;1.90;99.90;;;;;;5031979;28;20210;-66
2021/01/27 01:33:41;;;;;;;5.87;3.20;;;2.00;99.90;;;;;;5031285;28;20645;-67
2021/01/27 01:36:06;;;;;;;4.90;3.40;;;2.00;99.90;;;;;;5031691;28;20171;-63
2021/01/27 01:38:32;;;;;;;7.60;3.77;;;2.00;99.90;;;;;;5031046;28;20179;-65
2021/01/27 01:41:00;;;;;;;5.07;3.30;;;2.00;99.90;;;;;;5031193;28;20578;-65
2021/01/27 01:43:27;;;;;;;3.97;3.10;;;2.00;99.90;;;;;;5031204;28;20176;-64
2021/01/27 01:45:54;;;;;;;8.50;3.80;;;1.90;99.90;;;;;;5031260;28;20437;-64
2021/01/27 01:48:33;;;;;;;6.17;3.20;;;1.90;99.90;;;;;;5031147;28;20462;-66
2021/01/27 01:51:25;;;;;;;5.10;3.27;;;1.80;99.90;;;;;;5031515;28;20437;-65
2021/01/27 01:53:55;;;;;;;11.03;3.73;;;1.80;99.90;;;;;;5030835;28;20415;-65
2021/01/27 01:56:25;;;;;;;6.23;3.37;;;1.70;99.90;;;;;;5031278;28;20418;-66
2021/01/27 01:58:56;;;;;;;8.90;3.40;;;1.70;99.90;;;;;;5030419;28;20425;-66
2021/01/27 02:01:22;;;;;;;4.47;3.00;;;1.70;99.90;;;;;;5031189;28;20441;-65
2021/01/27 02:03:50;;;;;;;4.53;2.93;;;1.70;99.90;;;;;;5030922;28;20453;-66
2021/01/27 02:06:16;;;;;;;5.57;3.20;;;1.80;99.90;;;;;;5031181;28;20422;-64
2021/01/27 02:08:48;;;;;;;6.60;3.53;;;1.80;99.90;;;;;;5030985;28;20452;-66
2021/01/27 02:11:20;;;;;;;4.10;2.97;;;1.90;99.90;;;;;;5030946;28;20417;-64
2021/01/27 02:14:24;;;;;;;4.43;3.33;;;1.80;99.90;;;;;;5030774;28;20502;-64
2021/01/27 02:16:52;;;;;;;5.37;3.67;;;1.90;99.90;;;;;;5030932;28;20492;-64
2021/01/27 02:19:51;;;;;;;5.23;3.17;;;1.80;99.90;;;;;;5030966;28;20748;-68
2021/01/27 02:22:50;;;;;;;3.73;3.13;;;1.90;99.90;;;;;;5034535;28;20422;-63
2021/01/27 02:25:22;;;;;;;5.43;3.03;;;1.90;99.90;;;;;;5034155;28;20456;-64
2021/01/27 02:27:50;;;;;;;5.63;2.97;;;1.90;99.90;;;;;;5034859;28;20406;-64
2021/01/27 02:30:44;;;;;;;5.43;3.27;;;1.90;99.90;;;;;;5034842;28;20433;-64
2021/01/27 02:33:35;;;;;;;4.50;3.30;;;1.90;99.90;;;;;;5034791;28;20418;-64
2021/01/27 02:36:36;;;;;;;3.73;2.87;;;1.90;99.90;;;;;;5034578;28;20438;-63
2021/01/27 02:39:29;;;;;;;5.93;3.10;;;2.00;99.90;;;;;;5020866;28;20458;-64
2021/01/27 02:42:25;;;;;;;5.97;3.23;;;2.00;99.90;;;;;;5032298;28;20418;-66
2021/01/27 02:45:05;;;;;;;4.07;3.00;;;2.10;99.90;;;;;;5034491;28;20426;-65
2021/01/27 02:47:44;;;;;;;5.57;3.00;;;2.10;99.90;;;;;;5034379;28;20433;-64
2021/01/27 02:50:15;;;;;;;9.13;3.13;;;2.10;99.90;;;;;;5034432;28;20935;-65
2021/01/27 02:52:54;;;;;;;4.03;3.03;;;2.10;99.90;;;;;;5035473;28;20452;-64
2021/01/27 02:55:33;;;;;;;4.30;2.70;;;2.10;99.90;;;;;;5034335;28;20529;-66
2021/01/27 02:58:15;;;;;;;3.80;2.73;;;2.20;99.90;;;;;;5034255;28;20429;-65
2021/01/27 03:00:45;;;;;;;8.93;2.80;;;2.20;99.90;;;;;;5034299;28;20460;-64
2021/01/27 03:03:20;;;;;;;4.80;2.80;;;2.20;99.90;;;;;;5034328;28;20496;-65
2021/01/27 03:05:52;;;;;;;3.50;2.50;;;2.30;99.90;;;;;;5034063;28;20418;-64
2021/01/27 03:08:25;;;;;;;6.07;2.37;;;2.40;99.90;;;;;;5033835;28;20461;-66
2021/01/27 03:11:02;;;;;;;4.33;2.40;;;2.40;99.90;;;;;;5033887;28;20763;-64
2021/01/27 03:13:28;;;;;;;5.57;2.60;;;2.50;99.90;;;;;;5033869;28;20441;-66
2021/01/27 03:15:57;;;;;;;6.17;2.77;;;2.40;99.90;;;;;;5034050;28;20458;-67
2021/01/27 03:18:27;;;;;;;4.60;2.77;;;2.40;99.90;;;;;;5033700;28;20631;-65
2021/01/27 03:20:59;;;;;;;5.83;2.50;;;2.40;99.90;;;;;;5032757;28;20415;-64
2021/01/27 03:23:57;;;;;;;5.27;2.43;;;2.50;99.90;;;;;;5033898;28;20425;-64
2021/01/27 03:26:30;;;;;;;9.07;3.17;;;2.50;99.90;;;;;;5033614;28;20514;-65
2021/01/27 03:29:30;;;;;;;3.20;2.33;;;2.50;99.90;;;;;;5033514;28;20504;-64
2021/01/27 03:31:58;;;;;;;4.50;2.40;;;2.50;99.90;;;;;;5022168;28;20943;-64
2021/01/27 03:34:36;;;;;;;4.40;2.50;;;2.50;99.90;;;;;;5033756;28;20765;-65
2021/01/27 03:37:56;;;;;;;4.47;2.57;;;2.50;99.90;;;;;;5033710;28;20809;-66
2021/01/27 03:40:23;;;;;;;5.20;2.67;;;2.40;99.90;;;;;;4953152;29;20422;-63
2021/01/27 03:43:14;;;;;;;4.20;2.87;;;2.40;99.90;;;;;;5027557;28;20422;-67
2021/01/27 03:45:46;;;;;;;3.53;2.40;;;2.40;99.90;;;;;;5028828;28;20429;-65
2021/01/27 03:48:16;;;;;;;2.87;2.03;;;2.40;99.90;;;;;;5033457;28;20865;-66
2021/01/27 03:50:43;;;;;;;5.47;2.90;;;2.50;99.90;;;;;;5033177;28;20429;-65
2021/01/27 03:53:15;;;;;;;4.87;2.53;;;2.60;99.90;;;;;;5033882;28;20450;-65
2021/01/27 03:56:13;;;;;;;4.67;2.60;;;2.60;99.90;;;;;;5033109;28;20485;-64
2021/01/27 03:58:41;;;;;;;3.20;2.27;;;2.70;99.90;;;;;;4989551;28;20426;-66
2021/01/27 04:01:17;;;;;;;4.10;2.77;;;2.70;99.90;;;;;;5033143;28;20418;-64
2021/01/27 04:03:44;;;;;;;3.93;2.33;;;2.60;99.90;;;;;;5032979;28;20458;-64
2021/01/27 04:06:09;;;;;;;3.57;2.40;;;2.50;99.90;;;;;;5033101;28;20857;-63
2021/01/27 04:08:36;;;;;;;3.53;2.00;;;2.50;99.90;;;;;;5032946;28;20553;-65
2021/01/27 04:11:02;;;;;;;3.93;2.27;;;2.50;99.90;;;;;;5032798;28;20634;-66
2021/01/27 04:13:29;;;;;;;4.77;3.03;;;2.40;99.90;;;;;;5033188;28;20977;-64
2021/01/27 04:15:55;;;;;;;5.13;3.13;;;2.40;99.90;;;;;;5032802;28;20446;-64
2021/01/27 04:18:21;;;;;;;8.90;4.13;;;2.30;99.90;;;;;;5032832;28;20457;-65
2021/01/27 04:20:46;;;;;;;6.37;4.20;;;2.20;99.90;;;;;;5015235;28;20461;-67
2021/01/27 04:23:12;;;;;;;7.07;4.27;;;2.20;99.90;;;;;;5032489;28;20176;-64
2021/01/27 04:25:38;;;;;;;9.10;5.90;;;2.20;99.90;;;;;;5032809;28;20654;-64
2021/01/27 04:28:04;;;;;;;9.10;5.93;;;2.20;99.90;;;;;;5032709;28;20341;-66
2021/01/27 04:30:32;;;;;;;7.90;5.50;;;2.10;99.90;;;;;;5032466;28;20944;-64
2021/01/27 04:33:00;;;;;;;9.70;6.30;;;2.10;99.90;;;;;;5032480;28;20501;-64
2021/01/27 04:35:26;;;;;;;7.03;4.67;;;2.10;99.90;;;;;;5032396;28;20417;-64
2021/01/27 04:37:52;;;;;;;7.60;4.30;;;2.10;99.90;;;;;;5032198;28;20419;-64
2021/01/27 04:40:25;;;;;;;5.10;4.10;;;2.20;99.90;;;;;;5032436;28;20441;-64
2021/01/27 04:42:51;;;;;;;3.20;2.43;;;2.20;99.90;;;;;;5032365;28;20415;-64
2021/01/27 04:45:17;;;;;;;6.10;2.53;;;2.20;99.90;;;;;;5032173;28;20413;-64
2021/01/27 04:48:14;;;;;;;6.27;3.03;;;2.30;99.90;;;;;;5032176;28;20415;-66
2021/01/27 04:50:51;;;;;;;4.53;2.90;;;2.40;99.90;;;;;;5027469;28;20940;-65
2021/01/27 04:53:39;;;;;;;7.17;2.80;;;2.50;99.90;;;;;;5032752;28;20991;-66
2021/01/27 04:56:17;;;;;;;8.63;2.50;;;2.50;99.90;;;;;;5031916;28;20419;-67
2021/01/27 04:58:55;;;;;;;8.60;2.23;;;2.50;99.90;;;;;;5031494;28;20789;-64
2021/01/27 05:01:34;;;;;;;6.10;3.10;;;2.50;99.90;;;;;;5032069;28;20453;-64
2021/01/27 05:04:31;;;;;;;4.87;2.33;;;2.50;99.90;;;;;;5032358;28;20501;-64
2021/01/27 05:07:05;;;;;;;6.43;2.73;;;2.50;99.90;;;;;;5032196;28;20510;-63
2021/01/27 05:09:39;;;;;;;7.23;3.13;;;2.50;99.90;;;;;;5032056;28;20462;-67
2021/01/27 05:12:07;;;;;;;4.73;2.23;;;2.50;99.90;;;;;;5030888;28;20868;-63
2021/01/27 05:14:34;;;;;;;4.70;2.50;;;2.50;99.90;;;;;;5032323;28;20419;-65
2021/01/27 05:17:05;;;;;;;4.23;2.50;;;2.50;99.90;;;;;;5032186;28;20414;-66
2021/01/27 05:19:31;;;;;;;4.57;3.23;;;2.50;99.90;;;;;;5032028;28;20414;-65
2021/01/27 05:21:58;;;;;;;5.77;3.07;;;2.50;99.90;;;;;;5032285;28;20769;-63
2021/01/27 05:24:24;;;;;;;4.60;2.57;;;2.60;99.90;;;;;;5030772;28;20569;-64
2021/01/27 05:26:57;;;;;;;3.67;2.30;;;2.60;99.90;;;;;;5032049;28;20438;-64
2021/01/27 05:29:28;;;;;;;4.10;2.53;;;2.50;99.90;;;;;;5031862;28;20469;-66
2021/01/27 05:32:09;;;;;;;4.40;2.80;;;2.60;99.90;;;;;;5031634;28;20419;-65
2021/01/27 05:34:42;;;;;;;5.50;2.63;;;2.60;99.90;;;;;;5032119;28;20407;-65
2021/01/27 05:37:26;;;;;;;5.10;2.67;;;2.50;99.90;;;;;;5031896;28;20942;-67
2021/01/27 05:40:08;;;;;;;6.07;2.20;;;2.50;99.90;;;;;;5031712;28;20771;-65
2021/01/27 05:42:35;;;;;;;2.93;2.27;;;2.50;99.90;;;;;;5031736;28;20406;-65
2021/01/27 05:45:31;;;;;;;4.17;2.00;;;2.50;99.90;;;;;;5031708;28;20414;-67
2021/01/27 05:48:14;;;;;;;5.33;2.53;;;2.40;99.90;;;;;;5031382;28;20419;-65
2021/01/27 05:50:41;;;;;;;6.03;2.53;;;2.40;99.90;;;;;;5031576;28;20422;-64
2021/01/27 05:53:19;;;;;;;4.43;2.30;;;2.40;99.90;;;;;;5032495;28;20454;-64
2021/01/27 05:56:04;;;;;;;4.57;2.53;;;2.40;99.90;;;;;;5030270;28;20970;-65
2021/01/27 05:58:38;;;;;;;5.77;2.40;;;2.30;99.90;;;;;;5031643;28;20836;-64
2021/01/27 06:01:21;;;;;;;2.97;2.10;;;2.30;99.90;;;;;;5030974;28;20423;-67
2021/01/27 06:04:02;;;;;;;2.80;1.80;;;2.40;99.90;;;;;;5031450;28;20433;-66
2021/01/27 06:06:32;;;;;;;4.17;1.90;;;2.50;99.90;;;;;;5015252;28;20430;-67
2021/01/27 06:08:59;;;;;;;4.03;2.30;;;2.40;99.90;;;;;;5031338;28;20462;-65
2021/01/27 06:11:26;;;;;;;5.17;2.37;;;2.50;99.90;;;;;;5031681;28;20765;-66
2021/01/27 06:14:07;;;;;;;5.27;1.93;;;2.50;99.90;;;;;;5031586;28;20510;-65
2021/01/27 06:16:43;;;;;;;2.30;1.70;;;2.50;99.90;;;;;;5030992;28;20851;-65
2021/01/27 06:19:11;;;;;;;3.93;2.57;;;2.50;99.90;;;;;;5031241;28;20866;-66
2021/01/27 06:22:05;;;;;;;4.50;2.70;;;2.50;99.90;;;;;;5031387;28;20426;-64
2021/01/27 06:24:54;;;;;;;5.43;3.50;;;2.40;99.90;;;;;;5029963;28;20522;-66
2021/01/27 06:27:47;;;;;;;6.13;4.00;;;2.40;99.90;;;;;;5031087;28;20419;-65
2021/01/27 06:30:21;;;;;;;5.97;3.30;;;2.30;99.90;;;;;;5031477;28;20796;-66
2021/01/27 06:33:09;;;;;;;5.77;3.63;;;2.40;99.90;;;;;;5031078;28;20745;-65
2021/01/27 06:36:04;;;;;;;4.80;3.07;;;2.40;99.90;;;;;;5031004;28;20425;-66
2021/01/27 06:38:49;;;;;;;5.00;4.13;;;2.30;99.90;;;;;;5031074;28;20406;-67
2021/01/27 06:41:15;;;;;;;6.63;3.80;;;2.30;99.90;;;;;;5031298;28;20422;-65
2021/01/27 06:43:44;;;;;;;5.83;4.00;;;2.30;99.90;;;;;;5031018;28;20679;-64
2021/01/27 06:46:35;;;;;;;9.10;5.17;;;2.30;99.90;;;;;;5031128;28;20176;-65
2021/01/27 06:49:22;;;;;;;10.80;5.37;;;2.30;99.90;;;;;;5016643;28;20481;-66
2021/01/27 06:52:17;;;;;;;7.70;5.50;;;2.30;99.90;;;;;;5031161;28;20541;-66
2021/01/27 06:54:55;;;;;;;10.33;6.97;;;2.30;99.90;;;;;;5030680;28;20425;-64
2021/01/27 06:57:37;;;;;;;11.07;5.63;;;2.20;99.90;;;;;;5030087;28;20916;-64
2021/01/27 07:00:34;;;;;;;10.57;6.30;;;2.20;99.90;;;;;;5030466;28;20421;-64
2021/01/27 07:03:18;;;;;;;9.03;6.70;;;2.10;99.90;;;;;;4992315;28;20414;-64
2021/01/27 07:06:21;;;;;;;13.43;7.47;;;2.00;99.90;;;;;;5030335;28;20473;-64
2021/01/27 07:09:05;;;;;;;8.37;6.70;;;2.00;99.90;;;;;;5033125;28;20457;-65
2021/01/27 07:12:01;;;;;;;11.33;6.90;;;2.00;99.90;;;;;;5031753;28;20553;-65
2021/01/27 07:14:45;;;;;;;13.40;7.50;;;1.90;99.90;;;;;;5031819;28;20449;-65
2021/01/27 07:17:28;;;;;;;12.17;8.13;;;1.90;99.90;;;;;;5032114;28;20406;-67
2021/01/27 07:20:24;;;;;;;11.03;6.87;;;1.90;99.90;;;;;;5030562;28;20464;-65
2021/01/27 07:23:01;;;;;;;12.43;7.37;;;1.90;99.90;;;;;;5033574;28;20426;-66
2021/01/27 07:25:49;;;;;;;9.90;6.63;;;1.80;99.90;;;;;;5033421;28;20469;-63
2021/01/27 07:28:45;;;;;;;11.30;6.87;;;1.80;99.90;;;;;;5033253;28;20811;-66
2021/01/27 07:31:20;;;;;;;12.20;7.97;;;1.80;99.90;;;;;;5031593;28;20765;-64
2021/01/27 07:33:54;;;;;;;11.53;7.60;;;1.80;99.90;;;;;;5031791;28;20431;-63
2021/01/27 07:36:50;;;;;;;8.83;5.37;;;1.80;99.90;;;;;;5033916;28;20422;-64
2021/01/27 07:39:24;;;;;;;10.73;6.83;;;1.80;99.90;;;;;;5032112;28;20430;-64
2021/01/27 07:42:31;;;;;;;12.33;7.23;;;1.70;99.90;;;;;;5033301;28;20500;-65
2021/01/27 07:45:07;;;;;;;13.67;7.70;;;1.70;99.90;;;;;;5033619;28;20414;-64
2021/01/27 07:47:46;;;;;;;8.23;5.57;;;1.70;99.90;;;;;;5031733;28;20419;-67
2021/01/27 07:50:15;;;;;;;9.60;6.33;;;1.60;99.90;;;;;;5032389;28;20422;-64
2021/01/27 07:52:58;;;;;;;20.07;9.33;;;1.60;99.90;;;;;;5033570;28;20455;-64
2021/01/27 07:55:53;;;;;;;13.03;7.73;;;1.50;99.90;;;;;;5033089;28;20502;-65
2021/01/27 07:58:23;;;;;;;9.20;7.10;;;1.50;99.90;;;;;;5033419;28;20437;-65
2021/01/27 08:01:07;;;;;;;12.47;7.07;;;1.50;99.90;;;;;;5033020;28;20469;-66
2021/01/27 08:03:42;;;;;;;12.63;8.00;;;1.40;99.90;;;;;;5033039;28;20461;-68
2021/01/27 08:06:12;;;;;;;11.87;7.47;;;1.30;99.90;;;;;;5031448;28;20414;-65
2021/01/27 08:08:58;;;;;;;13.73;7.43;;;1.30;99.90;;;;;;5022070;28;20463;-67
2021/01/27 08:11:37;;;;;;;12.93;9.47;;;1.30;99.90;;;;;;5032572;28;20417;-65
2021/01/27 08:14:05;;;;;;;12.00;5.77;;;1.30;99.90;;;;;;5032951;28;20940;-66
2021/01/27 08:16:34;;;;;;;15.73;9.70;;;1.30;99.90;;;;;;5024534;28;20419;-65
2021/01/27 08:19:12;;;;;;;14.53;10.57;;;1.70;99.90;;;;;;5032403;28;20426;-66
2021/01/27 08:21:47;;;;;;;14.10;8.53;;;1.30;99.90;;;;;;5032667;28;20436;-67
2021/01/27 08:24:34;;;;;;;10.13;7.40;;;1.30;99.90;;;;;;5032524;28;20504;-65
2021/01/27 08:27:16;;;;;;;16.70;11.27;;;1.30;99.90;;;;;;5032713;28;20917;-66
2021/01/27 08:30:02;;;;;;;17.10;12.00;;;1.20;99.90;;;;;;5030883;28;20450;-63
2021/01/27 08:32:34;;;;;;;17.60;12.77;;;1.30;99.90;;;;;;5032293;28;20426;-67
2021/01/27 08:35:34;;;;;;;16.90;11.07;;;1.30;99.90;;;;;;5028812;28;20414;-64
2021/01/27 08:38:32;;;;;;;17.80;12.60;;;1.30;99.90;;;;;;5032221;28;20423;-64
2021/01/27 08:40:59;;;;;;;13.40;8.33;;;1.30;99.90;;;;;;4988979;28;20754;-65
2021/01/27 08:43:48;;;;;;;15.90;11.17;;;1.30;99.90;;;;;;5032445;28;20426;-65
2021/01/27 08:46:48;;;;;;;13.87;9.87;;;1.20;99.90;;;;;;5031577;28;20431;-63
2021/01/27 08:49:35;;;;;;;9.07;6.23;;;1.20;99.90;;;;;;5026388;28;20520;-64
2021/01/27 08:52:24;;;;;;;7.30;5.53;;;1.20;99.90;;;;;;5032362;28;20438;-65
2021/01/27 08:54:51;;;;;;;13.70;10.53;;;1.10;99.90;;;;;;5021041;28;20766;-65
2021/01/27 08:57:37;;;;;;;9.70;7.77;;;1.20;99.90;;;;;;5032274;28;20825;-65
2021/01/27 09:00:14;;;;;;;14.23;9.67;;;1.20;99.90;;;;;;5031892;28;20421;-66
2021/01/27 09:02:50;;;;;;;16.37;11.13;;;1.20;99.90;;;;;;5032030;28;20453;-65
2021/01/27 09:05:32;;;;;;;13.17;10.07;;;1.30;99.90;;;;;;5031786;28;20410;-63
2021/01/27 09:08:10;;;;;;;9.43;7.57;;;1.30;99.90;;;;;;5031713;28;20445;-64
2021/01/27 09:10:42;;;;;;;11.80;8.37;;;1.30;99.90;;;;;;5031901;28;20750;-64
2021/01/27 09:13:39;;;;;;;8.93;6.80;;;1.30;99.90;;;;;;5031705;28;20406;-63
2021/01/27 09:16:21;;;;;;;10.93;8.10;;;1.20;99.90;;;;;;5031717;28;20406;-65
2021/01/27 09:18:55;;;;;;;4.93;3.47;;;1.20;99.90;;;;;;5031649;28;20422;-66
2021/01/27 09:21:22;;;;;;;12.87;9.03;;;1.20;99.90;;;;;;5031451;28;20449;-66
2021/01/27 09:24:15;;;;;;;12.30;9.00;;;1.20;99.90;;;;;;5031679;28;20453;-65
2021/01/27 09:26:52;;;;;;;8.90;7.07;;;1.30;99.90;;;;;;5017298;28;20423;-64
2021/01/27 09:29:23;;;;;;;8.23;6.27;;;1.30;99.90;;;;;;5031220;28;20450;-65
2021/01/27 09:31:50;;;;;;;7.20;6.00;;;1.30;99.90;;;;;;5030804;28;20908;-67
2021/01/27 09:34:26;;;;;;;12.03;8.90;;;1.40;99.90;;;;;;5031333;28;20418;-66
2021/01/27 09:37:14;;;;;;;8.90;7.13;;;1.30;99.90;;;;;;5031108;28;20829;-67
2021/01/27 09:39:46;;;;;;;7.80;4.70;;;1.30;99.90;;;;;;5029790;28;20442;-66
2021/01/27 09:42:27;;;;;;;6.90;4.93;;;1.30;99.90;;;;;;5031178;28;20417;-64
2021/01/27 09:44:58;;;;;;;13.87;10.20;;;1.30;99.90;;;;;;5031231;28;20415;-64
2021/01/27 09:47:24;;;;;;;8.47;5.47;;;1.30;99.90;;;;;;5031181;28;20469;-65
2021/01/27 09:49:59;;;;;;;5.60;4.63;;;1.30;99.90;;;;;;5031037;28;20561;-66
2021/01/27 09:52:32;;;;;;;7.83;6.33;;;1.30;99.90;;;;;;5031374;28;20524;-65
2021/01/27 09:55:12;;;;;;;8.70;6.83;;;1.30;99.90;;;;;;5031233;28;20921;-66
2021/01/27 09:57:40;;;;;;;9.97;8.17;;;1.20;99.90;;;;;;5031057;28;20425;-65
2021/01/27 10:00:10;;;;;;;12.60;8.57;;;1.20;99.90;;;;;;5031143;28;20442;-66
2021/01/27 10:02:37;;;;;;;13.67;11.27;;;1.20;99.90;;;;;;5030913;28;20415;-63
2021/01/27 10:05:33;;;;;;;15.80;11.07;;;1.20;99.90;;;;;;5030870;28;20449;-65
2021/01/27 10:08:01;;;;;;;12.27;10.33;;;1.30;99.90;;;;;;5030778;28;20438;-65
2021/01/27 10:10:27;;;;;;;13.67;10.93;;;1.30;99.90;;;;;;5031109;28;20421;-65
2021/01/27 10:13:03;;;;;;;11.37;8.83;;;1.40;99.90;;;;;;5030816;28;20764;-65
2021/01/27 10:15:34;;;;;;;6.13;3.70;;;1.40;99.90;;;;;;5030737;28;20182;-66
2021/01/27 10:18:12;;;;;;;6.23;4.40;;;1.40;99.90;;;;;;5030729;28;20414;-67
2021/01/27 10:20:41;;;;;;;8.13;6.30;;;1.40;99.90;;;;;;5030795;28;20433;-65
2021/01/27 10:23:13;;;;;;;10.57;8.37;;;1.40;99.90;;;;;;5030995;28;20457;-65
2021/01/27 10:25:39;;;;;;;11.80;9.33;;;1.50;99.90;;;;;;5030829;28;20422;-65
2021/01/27 10:28:21;;;;;;;11.60;7.70;;;1.50;99.90;;;;;;5030558;28;20421;-64
2021/01/27 10:31:09;;;;;;;5.53;3.73;;;1.60;99.90;;;;;;5030797;28;20749;-64
2021/01/27 10:33:51;;;;;;;8.93;6.20;;;1.50;99.90;;;;;;5030633;28;20460;-63
2021/01/27 10:36:37;;;;;;;11.10;6.73;;;1.50;99.90;;;;;;5030567;28;20473;-64
2021/01/27 10:39:18;;;;;;;3.83;3.47;;;1.50;99.90;;;;;;5013632;28;20465;-65
2021/01/27 10:42:11;;;;;;;9.87;8.43;;;1.50;99.90;;;;;;5032063;28;20797;-63
2021/01/27 10:44:39;;;;;;;6.23;5.33;;;1.60;99.90;;;;;;5033905;28;20430;-66
2021/01/27 10:47:07;;;;;;;7.10;5.07;;;1.60;99.90;;;;;;5034224;28;20430;-66
2021/01/27 10:49:36;;;;;;;7.67;6.60;;;1.50;99.90;;;;;;5034054;28;20462;-65
2021/01/27 10:52:06;;;;;;;4.23;3.47;;;1.50;99.90;;;;;;5034972;28;21721;-65
2021/01/27 10:54:32;;;;;;;8.30;6.37;;;1.50;99.90;;;;;;5034358;28;20423;-65
2021/01/27 10:56:57;;;;;;;10.27;8.07;;;1.60;99.90;;;;;;5034198;28;20514;-67
2021/01/27 10:59:24;;;;;;;9.03;6.77;;;1.60;99.90;;;;;;5034020;28;20259;-65
2021/01/27 11:01:50;;;;;;;7.80;6.17;;;1.60;99.90;;;;;;5034062;28;20183;-64
2021/01/27 11:04:15;;;;;;;9.13;7.67;;;1.70;99.90;;;;;;5034336;28;20422;-65
2021/01/27 11:06:43;;;;;;;4.20;3.53;;;1.70;99.90;;;;;;5034316;28;20182;-64
2021/01/27 11:09:09;;;;;;;10.13;7.23;;;1.70;99.90;;;;;;5034512;28;20207;-66
2021/01/27 11:11:36;;;;;;;6.97;5.33;;;1.70;99.90;;;;;;5034020;28;20769;-67
2021/01/27 11:14:03;;;;;;;7.87;6.63;;;1.80;99.90;;;;;;5033954;28;20940;-65
2021/01/27 11:16:29;;;;;;;9.70;8.03;;;1.70;99.90;;;;;;5034056;28;20414;-64
2021/01/27 11:18:55;;;;;;;5.97;4.90;;;1.70;99.90;;;;;;5033906;28;20816;-63
2021/01/27 11:21:21;;;;;;;7.00;5.57;;;1.70;99.90;;;;;;5033560;28;20686;-65
2021/01/27 11:23:46;;;;;;;7.67;6.20;;;1.80;99.90;;;;;;5033880;28;20187;-66
2021/01/27 11:26:18;;;;;;;6.57;3.87;;;1.80;99.90;;;;;;5033659;28;20929;-65
2021/01/27 11:28:48;;;;;;;7.13;6.10;;;1.70;99.90;;;;;;5033741;28;20725;-64
2021/01/27 11:31:14;;;;;;;5.67;4.80;;;1.70;99.90;;;;;;5033632;28;20426;-65
2021/01/27 11:33:40;;;;;;;8.27;5.90;;;1.80;99.90;;;;;;5033489;28;20415;-63
2021/01/27 11:36:07;;;;;;;7.23;6.30;;;1.80;99.90;;;;;;5033334;28;20418;-66
2021/01/27 11:38:32;;;;;;;4.27;3.50;;;1.80;99.90;;;;;;5033792;28;20422;-64
2021/01/27 11:40:58;;;;;;;2.47;2.27;;;1.80;99.90;;;;;;5033323;28;20561;-64
2021/01/27 11:43:24;;;;;;;8.63;6.87;;;1.80;99.90;;;;;;5033297;28;20186;-64
2021/01/27 11:45:49;;;;;;;7.50;6.70;;;1.80;99.90;;;;;;5033221;28;20650;-66
2021/01/27 11:48:15;;;;;;;7.50;6.67;;;1.80;99.90;;;;;;5033287;28;20283;-64
2021/01/27 11:50:40;;;;;;;8.03;6.53;;;1.80;99.90;;;;;;5033630;28;20176;-66
2021/01/27 11:53:06;;;;;;;5.63;3.97;;;1.80;99.90;;;;;;5032976;28;20222;-64
2021/01/27 11:55:31;;;;;;;3.53;2.83;;;1.80;99.90;;;;;;5033073;28;20195;-65
2021/01/27 11:57:57;;;;;;;3.13;2.33;;;1.80;99.90;;;;;;5033033;28;20172;-67
2021/01/27 12:00:23;;;;;;;8.57;6.67;;;1.70;99.90;;;;;;5032969;28;20163;-64
2021/01/27 12:02:49;;;;;;;4.17;3.77;;;1.80;99.90;;;;;;5033062;28;20186;-63
2021/01/27 12:05:17;;;;;;;5.07;3.47;;;1.80;99.90;;;;;;5032844;28;20168;-64
2021/01/27 12:07:42;;;;;;;3.80;3.37;;;1.90;99.90;;;;;;5032936;28;20299;-65
2021/01/27 12:10:09;;;;;;;6.50;4.93;;;1.90;99.90;;;;;;5032508;28;20898;-63
2021/01/27 12:12:35;;;;;;;2.07;1.90;;;2.00;99.90;;;;;;5032820;28;20168;-66
2021/01/27 12:15:00;;;;;;;2.70;2.47;;;1.90;99.90;;;;;;5032661;28;20469;-65
2021/01/27 12:17:27;;;;;;;2.63;2.43;;;1.90;99.90;;;;;;5032641;28;20665;-65
2021/01/27 12:19:52;;;;;;;4.80;3.63;;;1.90;99.90;;;;;;5032498;28;20707;-66
2021/01/27 12:22:18;;;;;;;6.00;3.27;;;1.90;99.90;;;;;;5031485;28;20513;-63
2021/01/27 12:24:44;;;;;;;3.80;3.50;;;1.90;99.90;;;;;;5031875;28;20334;-63
2021/01/27 12:27:10;;;;;;;4.77;3.03;;;1.80;99.90;;;;;;5032627;28;20908;-68
2021/01/27 12:29:35;;;;;;;5.30;4.47;;;1.70;99.90;;;;;;5032383;28;20195;-62
2021/01/27 12:32:01;;;;;;;4.53;4.07;;;1.70;99.90;;;;;;5032447;28;20195;-63
2021/01/27 12:34:26;;;;;;;6.97;5.00;;;1.70;99.90;;;;;;5032099;28;20190;-63
2021/01/27 12:36:52;;;;;;;3.07;2.77;;;1.80;99.90;;;;;;5032271;28;20842;-62
2021/01/27 12:39:18;;;;;;;5.93;3.27;;;1.80;99.90;;;;;;5032095;28;20211;-62
2021/01/27 12:41:45;;;;;;;7.17;3.57;;;1.70;99.90;;;;;;5032143;28;20704;-63
2021/01/27 12:44:11;;;;;;;3.50;2.60;;;1.70;99.90;;;;;;5032011;28;20179;-64
2021/01/27 12:46:36;;;;;;;5.03;3.63;;;1.80;99.90;;;;;;5031418;28;20417;-67
2021/01/27 12:49:02;;;;;;;3.53;3.13;;;1.80;99.90;;;;;;5031992;28;20235;-64
2021/01/27 12:51:28;;;;;;;5.63;4.93;;;1.80;99.90;;;;;;5031473;28;20200;-63
2021/01/27 12:53:53;;;;;;;7.53;4.97;;;1.80;99.90;;;;;;5030464;28;20269;-64
2021/01/27 12:56:19;;;;;;;3.83;3.27;;;1.80;99.90;;;;;;5031825;28;20665;-64
2021/01/27 12:58:44;;;;;;;6.17;5.30;;;2.20;99.90;;;;;;5031638;28;20190;-63
2021/01/27 13:01:12;;;;;;;4.90;4.27;;;1.80;99.90;;;;;;5032005;28;20175;-63
2021/01/27 13:03:38;;;;;;;5.17;4.67;;;1.80;99.90;;;;;;5031972;28;20242;-66
2021/01/27 13:06:04;;;;;;;4.43;3.73;;;1.90;99.90;;;;;;5030880;28;20422;-63
2021/01/27 13:08:29;;;;;;;3.47;3.07;;;1.90;99.90;;;;;;5031759;28;20215;-64
2021/01/27 13:10:55;;;;;;;4.10;3.70;;;1.90;99.90;;;;;;5031945;28;20179;-62
2021/01/27 13:13:20;;;;;;;6.27;4.47;;;1.90;99.90;;;;;;5031908;28;20665;-64
2021/01/27 13:15:46;;;;;;;5.40;3.70;;;1.90;99.90;;;;;;5031704;28;20180;-64
2021/01/27 13:18:12;;;;;;;5.30;4.43;;;1.90;99.90;;;;;;5031763;28;20182;-65
2021/01/27 13:20:38;;;;;;;4.80;3.90;;;2.00;99.90;;;;;;5029655;28;20231;-64
2021/01/27 13:23:04;;;;;;;3.93;2.53;;;2.10;99.90;;;;;;5031289;28;20246;-64
2021/01/27 13:25:30;;;;;;;3.30;3.00;;;2.00;99.90;;;;;;5031343;28;20183;-63
2021/01/27 13:27:56;;;;;;;7.53;5.60;;;2.00;99.90;;;;;;5031209;28;20908;-65
2021/01/27 13:30:23;;;;;;;5.70;4.43;;;2.00;99.90;;;;;;5023590;28;20223;-63